createdAt,value
2022-11-18T00:00:52.629Z,51.00
2022-11-18T00:03:19.210Z,51.10
2022-11-18T00:05:55.408Z,51.10
2022-11-18T00:08:22.380Z,51.10
2022-11-18T00:10:51.787Z,51.10
2022-11-18T00:13:37.152Z,51.10
2022-11-18T00:16:04.859Z,51.10
2022-11-18T00:18:31.620Z,51.00
2022-11-18T00:21:04.324Z,51.00
2022-11-18T00:23:30.882Z,51.00
2022-11-18T00:26:03.787Z,51.00
2022-11-18T00:28:30.934Z,51.10
2022-11-18T00:31:01.153Z,51.10
2022-11-18T00:33:27.710Z,51.10
2022-11-18T00:35:54.800Z,51.10
2022-11-18T00:38:21.364Z,51.10
2022-11-18T00:40:47.966Z,51.10
2022-11-18T00:43:14.511Z,51.20
2022-11-18T00:45:44.569Z,51.10
2022-11-18T00:48:11.189Z,51.10
2022-11-18T00:50:37.813Z,51.10
2022-11-18T00:53:04.367Z,51.10
2022-11-18T00:55:31.775Z,51.10
2022-11-18T00:57:58.371Z,51.10
2022-11-18T01:00:28.744Z,51.20
2022-11-18T01:02:55.316Z,51.20
2022-11-18T01:05:21.860Z,51.10
2022-11-18T01:07:48.541Z,51.10
2022-11-18T01:10:15.329Z,51.20
2022-11-18T01:13:00.431Z,51.10
2022-11-18T01:15:27.000Z,51.20
2022-11-18T01:17:53.581Z,51.20
2022-11-18T01:20:20.144Z,51.10
2022-11-18T01:22:46.725Z,51.20
2022-11-18T01:25:13.291Z,51.10
2022-11-18T01:27:40.975Z,51.20
2022-11-18T01:30:07.871Z,51.10
2022-11-18T01:32:34.695Z,51.10
2022-11-18T01:35:01.268Z,51.10
2022-11-18T01:37:29.667Z,51.10
2022-11-18T01:39:59.254Z,51.10
2022-11-18T01:42:25.810Z,51.20
2022-11-18T01:45:09.958Z,51.10
2022-11-18T01:47:47.728Z,51.10
2022-11-18T01:50:15.005Z,51.10
2022-11-18T01:52:41.575Z,51.10
2022-11-18T01:55:13.166Z,51.10
2022-11-18T01:57:39.973Z,51.20
2022-11-18T02:00:06.778Z,51.10
2022-11-18T02:02:33.753Z,51.20
2022-11-18T02:05:00.308Z,51.10
2022-11-18T02:07:26.994Z,51.30
2022-11-18T02:09:53.725Z,51.10
2022-11-18T02:12:20.403Z,51.10
2022-11-18T02:14:47.010Z,51.10
2022-11-18T02:17:20.551Z,51.10
2022-11-18T02:19:47.353Z,51.10
2022-11-18T02:22:13.927Z,51.00
2022-11-18T02:24:42.329Z,51.10
2022-11-18T02:27:20.570Z,51.10
2022-11-18T02:29:53.564Z,51.10
2022-11-18T02:32:22.759Z,51.10
2022-11-18T02:35:15.988Z,51.10
2022-11-18T02:37:55.231Z,51.10
2022-11-18T02:40:29.227Z,51.10
2022-11-18T02:43:03.036Z,51.10
2022-11-18T02:45:29.578Z,51.10
2022-11-18T02:47:56.148Z,51.10
2022-11-18T02:50:23.501Z,51.10
2022-11-18T02:52:51.739Z,51.10
2022-11-18T02:55:18.305Z,51.00
2022-11-18T02:57:44.865Z,51.10
2022-11-18T03:00:11.821Z,51.10
2022-11-18T03:02:42.520Z,51.10
2022-11-18T03:05:10.571Z,51.10
2022-11-18T03:07:37.163Z,51.10
2022-11-18T03:10:03.915Z,51.10
2022-11-18T03:12:33.500Z,51.10
2022-11-18T03:15:02.009Z,51.10
2022-11-18T03:17:32.535Z,51.10
2022-11-18T03:20:02.258Z,51.20
2022-11-18T03:22:31.085Z,51.10
2022-11-18T03:25:02.883Z,51.00
2022-11-18T03:30:03.357Z,51.10
2022-11-18T03:32:30.437Z,51.10
2022-11-18T03:34:57.888Z,51.00
2022-11-18T03:37:24.422Z,51.10
2022-11-18T03:39:54.596Z,51.00
2022-11-18T03:42:25.590Z,51.00
2022-11-18T03:44:57.678Z,51.10
2022-11-18T03:47:32.015Z,51.00
2022-11-18T03:50:00.691Z,51.10
2022-11-18T03:52:28.353Z,51.00
2022-11-18T03:54:55.295Z,51.00
2022-11-18T03:57:25.954Z,51.00
2022-11-18T03:59:54.012Z,51.00
2022-11-18T04:02:21.150Z,51.00
2022-11-18T04:04:48.297Z,51.00
2022-11-18T04:07:17.662Z,51.00
2022-11-18T04:09:45.532Z,51.00
2022-11-18T04:12:13.453Z,51.00
2022-11-18T04:14:41.149Z,51.00
2022-11-18T04:17:11.585Z,51.00
2022-11-18T04:19:38.247Z,50.90
2022-11-18T04:22:04.816Z,50.90
2022-11-18T04:24:31.422Z,51.00
2022-11-18T04:26:58.005Z,51.10
2022-11-18T04:29:24.711Z,50.90
2022-11-18T04:31:51.269Z,51.00
2022-11-18T04:34:17.818Z,50.80
2022-11-18T04:36:47.530Z,50.70
2022-11-18T04:39:14.252Z,50.50
2022-11-18T04:41:56.124Z,50.10
2022-11-18T04:44:25.244Z,49.90
2022-11-18T04:46:52.170Z,49.70
2022-11-18T04:49:19.054Z,49.60
2022-11-18T04:51:45.932Z,49.30
2022-11-18T04:54:12.484Z,49.30
2022-11-18T04:56:44.094Z,49.40
2022-11-18T04:59:14.088Z,49.60
2022-11-18T05:01:40.761Z,49.70
2022-11-18T05:04:07.448Z,49.90
2022-11-18T05:06:34.074Z,50.00
2022-11-18T05:09:00.710Z,49.90
2022-11-18T05:11:46.044Z,49.90
2022-11-18T05:14:13.128Z,50.00
2022-11-18T05:16:39.807Z,50.20
2022-11-18T05:19:06.434Z,50.40
2022-11-18T05:21:35.674Z,50.40
2022-11-18T05:24:02.447Z,50.50
2022-11-18T05:26:29.031Z,50.50
2022-11-18T05:28:55.584Z,50.60
2022-11-18T05:31:22.144Z,50.60
2022-11-18T05:33:48.704Z,50.70
2022-11-18T05:36:16.146Z,50.80
2022-11-18T05:38:43.014Z,50.80
2022-11-18T05:41:12.400Z,50.90
2022-11-18T05:43:38.959Z,50.90
2022-11-18T05:46:05.624Z,51.00
2022-11-18T05:48:32.286Z,51.10
2022-11-18T05:50:58.904Z,51.10
2022-11-18T05:53:25.450Z,51.00
2022-11-18T05:55:52.007Z,51.00
2022-11-18T05:58:18.570Z,51.10
2022-11-18T06:00:45.645Z,51.30
2022-11-18T06:03:13.488Z,51.30
2022-11-18T06:05:40.686Z,51.30
2022-11-18T06:08:07.348Z,50.80
2022-11-18T06:10:34.896Z,51.40
2022-11-18T06:13:02.596Z,51.40
2022-11-18T06:15:31.357Z,51.80
2022-11-18T06:17:57.914Z,52.00
2022-11-18T06:20:24.539Z,51.70
2022-11-18T06:22:51.313Z,51.80
2022-11-18T06:25:17.874Z,51.70
2022-11-18T06:27:44.436Z,51.70
2022-11-18T06:30:11.595Z,51.70
2022-11-18T06:32:38.162Z,51.70
2022-11-18T06:35:05.139Z,51.60
2022-11-18T06:37:31.689Z,51.60
2022-11-18T06:39:58.239Z,51.60
2022-11-18T06:42:45.398Z,51.60
2022-11-18T06:45:12.001Z,51.60
2022-11-18T06:47:38.582Z,51.60
2022-11-18T06:50:05.383Z,51.50
2022-11-18T06:52:31.925Z,51.50
2022-11-18T06:54:58.502Z,51.50
2022-11-18T06:57:25.077Z,51.50
2022-11-18T06:59:51.628Z,51.50
2022-11-18T07:02:19.071Z,51.50
2022-11-18T07:04:45.765Z,51.50
2022-11-18T07:07:12.413Z,51.40
2022-11-18T07:09:39.036Z,51.50
2022-11-18T07:12:05.733Z,51.40
2022-11-18T07:14:32.292Z,51.40
2022-11-18T07:16:58.874Z,52.00
2022-11-18T07:19:25.443Z,51.40
2022-11-18T07:21:52.004Z,51.40
2022-11-18T07:24:18.547Z,51.40
2022-11-18T07:26:45.101Z,51.40
2022-11-18T07:29:11.703Z,51.30
2022-11-18T07:31:39.669Z,51.30
2022-11-18T07:34:06.555Z,51.40
2022-11-18T07:36:35.945Z,51.30
2022-11-18T07:39:03.067Z,51.40
2022-11-18T07:41:29.710Z,51.40
2022-11-18T07:44:00.522Z,51.40
2022-11-18T07:46:31.359Z,51.30
2022-11-18T07:48:58.320Z,51.40
2022-11-18T07:51:25.635Z,51.30
2022-11-18T07:53:52.220Z,51.40
2022-11-18T07:56:18.919Z,51.30
2022-11-18T07:58:45.475Z,51.20
2022-11-18T08:01:12.043Z,51.20
2022-11-18T08:03:38.657Z,51.20
2022-11-18T08:06:05.665Z,51.20
2022-11-18T08:08:32.231Z,51.30
2022-11-18T08:10:59.166Z,51.20
2022-11-18T08:13:25.815Z,51.20
2022-11-18T08:15:52.484Z,51.20
2022-11-18T08:18:19.119Z,51.20
2022-11-18T08:20:45.754Z,51.20
2022-11-18T08:23:12.606Z,51.20
2022-11-18T08:25:39.470Z,51.10
2022-11-18T08:28:06.054Z,51.10
2022-11-18T08:30:33.072Z,51.20
2022-11-18T08:32:59.710Z,51.20
2022-11-18T08:35:28.539Z,51.10
2022-11-18T08:37:55.199Z,51.10
2022-11-18T08:40:21.791Z,51.20
2022-11-18T08:42:48.362Z,51.10
2022-11-18T08:45:14.924Z,51.10
2022-11-18T08:47:41.466Z,51.10
2022-11-18T08:50:08.793Z,51.10
2022-11-18T08:52:35.414Z,51.10
2022-11-18T08:55:01.995Z,51.10
2022-11-18T08:57:28.563Z,51.10
2022-11-18T08:59:55.174Z,51.10
2022-11-18T09:02:22.497Z,51.10
2022-11-18T09:04:49.332Z,51.10
2022-11-18T09:07:16.385Z,51.10
2022-11-18T09:09:45.400Z,51.10
2022-11-18T09:12:14.908Z,51.20
2022-11-18T09:17:29.265Z,51.00
2022-11-18T09:19:57.968Z,50.90
2022-11-18T09:22:24.527Z,51.00
2022-11-18T09:24:51.492Z,51.00
2022-11-18T09:27:22.794Z,51.00
2022-11-18T09:30:03.024Z,50.70
2022-11-18T09:32:29.611Z,51.00
2022-11-18T09:34:56.193Z,50.90
2022-11-18T09:37:23.009Z,50.90
2022-11-18T09:39:49.741Z,50.90
2022-11-18T09:42:19.191Z,50.90
2022-11-18T09:44:46.082Z,50.90
2022-11-18T09:47:21.011Z,51.00
2022-11-18T09:49:47.648Z,50.90
2022-11-18T09:52:18.849Z,50.90
2022-11-18T09:54:45.531Z,50.90
2022-11-18T09:57:16.300Z,50.90
2022-11-18T09:59:43.057Z,50.90
2022-11-18T10:02:29.714Z,50.90
2022-11-18T10:04:57.140Z,51.00
2022-11-18T10:07:27.677Z,50.90
2022-11-18T10:09:54.414Z,50.90
2022-11-18T10:12:20.955Z,50.90
2022-11-18T10:15:06.370Z,51.00
2022-11-18T10:17:41.822Z,51.00
2022-11-18T10:20:20.433Z,50.90
2022-11-18T10:22:46.964Z,50.90
2022-11-18T10:25:13.863Z,50.90
2022-11-18T10:27:41.130Z,50.90
2022-11-18T10:30:33.936Z,50.90
2022-11-18T10:33:04.199Z,50.90
2022-11-18T10:35:33.093Z,50.90
2022-11-18T10:38:07.874Z,50.90
2022-11-18T10:40:35.068Z,50.90
2022-11-18T10:43:01.695Z,50.90
2022-11-18T10:45:29.401Z,50.90
2022-11-18T10:48:01.531Z,50.70
2022-11-18T10:50:38.041Z,50.60
2022-11-18T10:53:26.392Z,50.30
2022-11-18T10:55:59.940Z,49.90
2022-11-18T10:58:26.673Z,49.80
2022-11-18T11:00:53.260Z,49.50
2022-11-18T11:03:27.002Z,49.30
2022-11-18T11:06:12.263Z,49.10
2022-11-18T11:08:46.818Z,49.10
2022-11-18T11:11:19.435Z,49.30
2022-11-18T11:13:45.997Z,49.50
2022-11-18T11:16:12.535Z,49.60
2022-11-18T11:18:41.845Z,49.70
2022-11-18T11:21:14.969Z,49.80
2022-11-18T11:23:41.623Z,49.90
2022-11-18T11:29:24.411Z,49.80
2022-11-18T11:31:58.273Z,49.80
2022-11-18T11:34:24.820Z,49.90
2022-11-18T11:36:51.527Z,50.10
2022-11-18T11:39:35.663Z,50.20
2022-11-18T11:42:11.540Z,50.20
2022-11-18T11:44:50.389Z,50.20
2022-11-18T11:47:44.721Z,50.40
2022-11-18T11:50:19.631Z,50.30
2022-11-18T11:52:55.356Z,50.40
2022-11-18T11:55:23.931Z,50.40
2022-11-18T11:58:08.784Z,50.40
2022-11-18T12:00:37.372Z,50.50
2022-11-18T12:03:07.127Z,50.50
2022-11-18T12:05:36.101Z,50.50
2022-11-18T12:08:13.109Z,50.50
2022-11-18T12:10:43.114Z,50.50
2022-11-18T12:13:18.838Z,50.50
2022-11-18T12:15:51.215Z,50.50
2022-11-18T12:18:21.142Z,50.50
2022-11-18T12:20:48.657Z,50.50
2022-11-18T12:23:17.858Z,50.50
2022-11-18T12:25:50.275Z,50.50
2022-11-18T12:28:27.614Z,50.60
2022-11-18T12:31:14.454Z,50.60
2022-11-18T12:33:56.884Z,50.50
2022-11-18T12:36:27.167Z,50.60
2022-11-18T12:38:54.442Z,50.60
2022-11-18T12:41:58.218Z,50.60
2022-11-18T12:44:28.241Z,50.60
2022-11-18T12:46:55.817Z,51.00
2022-11-18T12:49:22.465Z,50.70
2022-11-18T12:51:49.541Z,50.60
2022-11-18T12:54:28.355Z,50.70
2022-11-18T12:56:55.498Z,50.70
2022-11-18T12:59:34.910Z,50.60
2022-11-18T13:02:02.187Z,50.70
2022-11-18T13:04:28.740Z,50.70
2022-11-18T13:06:56.216Z,50.60
2022-11-18T13:09:33.256Z,50.60
2022-11-18T13:12:00.688Z,50.70
2022-11-18T13:14:46.814Z,50.60
2022-11-18T13:17:44.524Z,51.20
2022-11-18T13:20:37.601Z,50.60
2022-11-18T13:23:29.134Z,50.60
2022-11-18T13:26:02.290Z,50.60
2022-11-18T13:29:04.624Z,50.80
2022-11-18T13:31:36.868Z,50.50
2022-11-18T13:34:04.168Z,49.90
2022-11-18T13:36:30.855Z,50.00
2022-11-18T13:39:06.509Z,49.60
2022-11-18T13:41:36.396Z,49.30
2022-11-18T13:44:10.078Z,49.20
2022-11-18T13:46:36.641Z,48.90
2022-11-18T13:49:06.051Z,49.10
2022-11-18T13:51:32.629Z,49.90
2022-11-18T13:53:59.186Z,49.40
2022-11-18T13:56:33.204Z,49.40
2022-11-18T13:59:17.967Z,49.60
2022-11-18T14:01:45.506Z,49.70
2022-11-18T14:04:30.471Z,49.90
2022-11-18T14:07:15.727Z,50.00
2022-11-18T14:09:52.580Z,49.90
2022-11-18T14:12:19.108Z,49.80
2022-11-18T14:14:46.590Z,49.80
2022-11-18T14:17:22.188Z,49.80
2022-11-18T14:19:49.730Z,49.80
2022-11-18T14:22:17.772Z,50.10
2022-11-18T14:24:46.222Z,50.10
2022-11-18T14:27:49.262Z,50.70
2022-11-18T14:30:31.192Z,50.20
2022-11-18T14:33:17.042Z,50.20
2022-11-18T14:35:58.021Z,50.00
2022-11-18T14:38:40.622Z,50.30
2022-11-18T14:41:15.426Z,50.30
2022-11-18T14:43:43.562Z,50.40
2022-11-18T14:46:16.904Z,50.40
2022-11-18T14:48:43.532Z,50.50
2022-11-18T14:51:11.950Z,50.40
2022-11-18T14:53:38.539Z,50.40
2022-11-18T14:56:08.335Z,51.00
2022-11-18T14:58:34.904Z,50.50
2022-11-18T15:01:01.546Z,50.50
2022-11-18T15:03:28.213Z,50.60
2022-11-18T15:05:55.063Z,50.50
2022-11-18T15:08:21.627Z,50.70
2022-11-18T15:10:48.203Z,50.70
2022-11-18T15:13:14.761Z,50.80
2022-11-18T15:15:41.325Z,50.80
2022-11-18T15:18:08.726Z,50.80
2022-11-18T15:20:35.303Z,50.90
2022-11-18T15:23:01.951Z,50.90
2022-11-18T15:25:28.543Z,50.90
2022-11-18T15:27:55.145Z,50.90
2022-11-18T15:32:49.621Z,51.00
2022-11-18T15:35:16.425Z,51.00
2022-11-18T15:37:43.056Z,51.00
2022-11-18T15:40:09.778Z,51.10
2022-11-18T15:42:47.344Z,51.10
2022-11-18T15:45:19.233Z,51.10
2022-11-18T15:47:45.875Z,51.20
2022-11-18T15:50:12.853Z,51.40
2022-11-18T15:52:39.493Z,51.40
2022-11-18T15:55:09.094Z,51.30
2022-11-18T15:57:35.718Z,51.40
2022-11-18T16:00:02.386Z,51.40
2022-11-18T16:02:31.024Z,51.50
2022-11-18T16:04:57.840Z,51.30
2022-11-18T16:07:24.482Z,51.10
2022-11-18T16:10:09.662Z,50.90
2022-11-18T16:12:48.603Z,50.80
2022-11-18T16:15:34.170Z,50.20
2022-11-18T16:18:01.002Z,50.10
2022-11-18T16:20:27.667Z,49.80
2022-11-18T16:22:57.984Z,49.90
2022-11-18T16:25:24.847Z,50.10
2022-11-18T16:27:51.949Z,50.20
2022-11-18T16:30:37.273Z,50.10
2022-11-18T16:33:03.920Z,50.20
2022-11-18T16:35:30.586Z,50.40
2022-11-18T16:38:02.852Z,50.50
2022-11-18T16:40:29.406Z,50.60
2022-11-18T16:42:55.979Z,50.60
2022-11-18T16:45:22.583Z,50.80
2022-11-18T16:47:53.842Z,50.80
2022-11-18T16:50:20.449Z,50.80
2022-11-18T16:52:49.682Z,50.90
2022-11-18T16:55:18.570Z,50.90
2022-11-18T16:57:45.232Z,50.90
2022-11-18T17:00:12.506Z,50.90
2022-11-18T17:02:42.081Z,50.90
2022-11-18T17:05:08.818Z,51.00
2022-11-18T17:07:38.552Z,51.00
2022-11-18T17:10:19.595Z,51.00
2022-11-18T17:12:49.837Z,51.10
2022-11-18T17:15:16.489Z,51.00
2022-11-18T17:17:43.063Z,51.60
2022-11-18T17:20:10.124Z,51.10
2022-11-18T17:22:36.693Z,51.10
2022-11-18T17:25:05.499Z,51.00
2022-11-18T17:27:32.242Z,51.10
2022-11-18T17:29:58.851Z,51.10
2022-11-18T17:32:25.507Z,51.10
2022-11-18T17:34:52.082Z,51.10
2022-11-18T17:37:18.766Z,51.20
2022-11-18T17:39:45.333Z,51.20
2022-11-18T17:42:14.786Z,51.20
2022-11-18T17:44:41.344Z,51.20
2022-11-18T17:47:07.889Z,51.20
2022-11-18T17:49:34.529Z,51.20
2022-11-18T17:52:01.089Z,51.20
2022-11-18T17:54:27.852Z,51.30
2022-11-18T17:56:54.731Z,51.20
2022-11-18T17:59:21.506Z,51.20
2022-11-18T18:01:49.207Z,51.20
2022-11-18T18:04:21.360Z,51.20
2022-11-18T18:06:55.658Z,51.30
2022-11-18T18:09:28.451Z,51.30
2022-11-18T18:11:57.040Z,51.40
2022-11-18T18:14:23.610Z,51.40
2022-11-18T18:16:50.434Z,51.50
2022-11-18T18:19:20.456Z,51.60
2022-11-18T18:21:50.359Z,51.60
2022-11-18T18:24:19.527Z,51.70
2022-11-18T18:26:46.616Z,51.70
2022-11-18T18:29:13.275Z,51.70
2022-11-18T18:31:40.088Z,51.80
2022-11-18T18:34:09.677Z,51.80
2022-11-18T18:36:36.752Z,51.80
2022-11-18T18:39:03.334Z,51.90
2022-11-18T18:41:30.018Z,51.80
2022-11-18T18:43:56.682Z,51.50
2022-11-18T18:46:31.474Z,51.40
2022-11-18T18:49:14.226Z,51.30
2022-11-18T18:51:41.607Z,51.10
2022-11-18T18:54:09.880Z,50.30
2022-11-18T18:56:36.587Z,50.40
2022-11-18T18:59:03.317Z,50.60
2022-11-18T19:01:30.014Z,50.80
2022-11-18T19:04:00.135Z,50.90
2022-11-18T19:09:16.831Z,51.20
2022-11-18T19:12:02.230Z,51.40
2022-11-18T19:14:28.969Z,51.40
2022-11-18T19:16:55.689Z,51.60
2022-11-18T19:19:42.957Z,51.70
2022-11-18T19:22:12.991Z,51.80
2022-11-18T19:24:55.011Z,51.90
2022-11-18T19:27:21.873Z,51.90
2022-11-18T19:29:48.454Z,52.00
2022-11-18T19:32:15.340Z,52.00
2022-11-18T19:34:42.005Z,52.10
2022-11-18T19:37:08.590Z,52.20
2022-11-18T19:39:38.045Z,52.20
2022-11-18T19:42:04.769Z,52.20
2022-11-18T19:44:31.323Z,52.80
2022-11-18T19:46:57.871Z,52.20
2022-11-18T19:49:24.434Z,52.20
2022-11-18T19:51:51.007Z,52.20
2022-11-18T19:54:17.589Z,52.10
2022-11-18T19:56:47.225Z,52.10
2022-11-18T19:59:13.861Z,52.10
2022-11-18T20:01:40.877Z,52.00
2022-11-18T20:04:07.502Z,52.10
2022-11-18T20:06:34.407Z,52.00
2022-11-18T20:09:00.997Z,52.00
2022-11-18T20:11:28.070Z,52.10
2022-11-18T20:13:54.717Z,52.00
2022-11-18T20:16:24.587Z,52.10
2022-11-18T20:18:54.744Z,52.10
2022-11-18T20:21:21.853Z,52.00
2022-11-18T20:23:55.293Z,52.10
2022-11-18T20:26:22.279Z,52.60
2022-11-18T20:28:54.322Z,52.00
2022-11-18T20:31:23.831Z,52.00
2022-11-18T20:33:50.860Z,52.00
2022-11-18T20:36:18.524Z,52.00
2022-11-18T20:38:47.867Z,51.90
2022-11-18T20:41:14.445Z,51.90
2022-11-18T20:43:40.994Z,52.00
2022-11-18T20:46:07.918Z,52.00
2022-11-18T20:48:34.663Z,52.00
2022-11-18T20:51:04.586Z,52.00
2022-11-18T20:53:37.825Z,52.00
2022-11-18T20:56:05.131Z,52.00
2022-11-18T20:58:32.127Z,52.00
2022-11-18T21:01:09.346Z,51.90
2022-11-18T21:03:36.328Z,51.90
2022-11-18T21:06:13.986Z,51.90
2022-11-18T21:08:41.322Z,52.00
2022-11-18T21:11:08.953Z,51.90
2022-11-18T21:13:54.396Z,51.90
2022-11-18T21:16:21.305Z,52.00
2022-11-18T21:18:48.077Z,51.90
2022-11-18T21:21:33.586Z,51.90
2022-11-18T21:24:00.546Z,52.00
2022-11-18T21:26:28.266Z,52.00
2022-11-18T21:28:55.967Z,52.00
2022-11-18T21:31:23.532Z,52.00
2022-11-18T21:33:50.517Z,51.90
2022-11-18T21:36:17.535Z,52.00
2022-11-18T21:38:44.123Z,51.90
2022-11-18T21:41:10.797Z,52.00
2022-11-18T21:44:04.071Z,52.00
2022-11-18T21:46:26.906Z,51.90
2022-11-18T21:48:59.925Z,51.90
2022-11-18T21:51:27.185Z,51.80
2022-11-18T21:53:56.682Z,51.80
2022-11-18T21:56:28.470Z,51.80
2022-11-18T21:58:55.140Z,51.70
2022-11-18T22:01:23.451Z,51.70
2022-11-18T22:03:55.173Z,51.70
2022-11-18T22:06:23.206Z,51.70
2022-11-18T22:08:52.093Z,51.70
2022-11-18T22:11:20.149Z,51.70
2022-11-18T22:13:46.788Z,51.70
2022-11-18T22:16:14.095Z,51.70
2022-11-18T22:18:41.616Z,51.60
2022-11-18T22:21:10.301Z,51.60
2022-11-18T22:23:39.774Z,51.60
2022-11-18T22:26:11.495Z,51.40
2022-11-18T22:28:38.182Z,51.60
2022-11-18T22:31:05.407Z,51.50
2022-11-18T22:33:32.353Z,51.50
2022-11-18T22:35:59.679Z,51.50
2022-11-18T22:38:26.440Z,51.40
2022-11-18T22:40:57.719Z,51.50
2022-11-18T22:43:24.365Z,51.40
2022-11-18T22:45:57.960Z,51.50
2022-11-18T22:48:24.625Z,51.50
2022-11-18T22:50:57.845Z,51.50
2022-11-18T22:53:24.471Z,51.50
2022-11-18T22:55:51.107Z,51.40
2022-11-18T22:58:17.674Z,51.50
2022-11-18T23:00:45.338Z,51.40
2022-11-18T23:03:12.315Z,51.40
2022-11-18T23:05:39.192Z,51.50
2022-11-18T23:08:05.797Z,51.40
2022-11-18T23:10:32.415Z,51.50
2022-11-18T23:13:17.347Z,51.40
2022-11-18T23:15:43.927Z,51.40
2022-11-18T23:18:11.924Z,51.40
2022-11-18T23:20:38.906Z,51.40
2022-11-18T23:23:05.642Z,51.40
2022-11-18T23:25:32.225Z,51.40
2022-11-18T23:27:58.971Z,51.40
2022-11-18T23:30:25.582Z,51.40
2022-11-18T23:32:52.842Z,51.30
2022-11-18T23:35:19.709Z,51.30
2022-11-18T23:37:46.482Z,51.30
2022-11-18T23:40:13.044Z,51.30
2022-11-18T23:42:41.553Z,51.40
2022-11-18T23:45:08.540Z,51.30
2022-11-18T23:47:35.739Z,51.40
2022-11-18T23:50:02.281Z,51.30
2022-11-18T23:52:28.866Z,51.20
2022-11-18T23:54:57.479Z,51.30
2022-11-18T23:57:24.138Z,51.20
2022-11-18T23:59:50.877Z,51.20
